sensor_id;sensor_type;location;lat;lon;timestamp;pressure;altitude;pressure_sealevel;temperature;humidity
11710;BME280;5911;51.036;6.972;2022-10-19T00:01:03;101957.06;;;12.78;100.00
11710;BME280;5911;51.036;6.972;2022-10-19T00:03:32;101946.97;;;12.70;100.00
11710;BME280;5911;51.036;6.972;2022-10-19T00:06:09;101963.09;;;12.80;100.00
11710;BME280;5911;51.036;6.972;2022-10-19T00:08:37;101958.84;;;12.77;100.00
11710;BME280;5911;51.036;6.972;2022-10-19T00:11:05;101953.56;;;12.64;100.00
11710;BME280;5911;51.036;6.972;2022-10-19T00:13:34;101963.72;;;12.71;100.00
11710;BME280;5911;51.036;6.972;2022-10-19T00:16:07;101966.06;;;12.62;100.00
11710;BME280;5911;51.036;6.972;2022-10-19T00:18:37;101969.22;;;12.55;100.00
11710;BME280;5911;51.036;6.972;2022-10-19T00:21:07;101953.78;;;12.49;100.00
11710;BME280;5911;51.036;6.972;2022-10-19T00:23:35;101956.72;;;12.57;100.00
11710;BME280;5911;51.036;6.972;2022-10-19T00:26:03;101952.47;;;12.54;100.00
11710;BME280;5911;51.036;6.972;2022-10-19T00:28:33;101950.16;;;12.50;100.00
11710;BME280;5911;51.036;6.972;2022-10-19T00:31:03;101950.38;;;12.47;100.00
11710;BME280;5911;51.036;6.972;2022-10-19T00:33:31;101943.38;;;12.46;100.00
11710;BME280;5911;51.036;6.972;2022-10-19T00:35:59;101954.19;;;12.55;100.00
11710;BME280;5911;51.036;6.972;2022-10-19T00:38:27;101948.69;;;12.58;100.00
11710;BME280;5911;51.036;6.972;2022-10-19T00:40:55;101946.88;;;12.46;100.00
11710;BME280;5911;51.036;6.972;2022-10-19T00:43:25;101951.03;;;12.50;100.00
11710;BME280;5911;51.036;6.972;2022-10-19T00:45:55;101952.91;;;12.48;100.00
11710;BME280;5911;51.036;6.972;2022-10-19T00:48:25;101947.63;;;12.48;100.00
11710;BME280;5911;51.036;6.972;2022-10-19T00:50:54;101954.06;;;12.44;100.00
11710;BME280;5911;51.036;6.972;2022-10-19T00:53:24;101961.16;;;12.44;100.00
11710;BME280;5911;51.036;6.972;2022-10-19T00:55:53;101953.78;;;12.49;100.00
11710;BME280;5911;51.036;6.972;2022-10-19T00:58:22;101963.06;;;12.54;100.00
11710;BME280;5911;51.036;6.972;2022-10-19T01:00:50;101951.22;;;12.47;100.00
11710;BME280;5911;51.036;6.972;2022-10-19T01:03:19;101966.91;;;12.50;100.00
11710;BME280;5911;51.036;6.972;2022-10-19T01:05:48;101943.38;;;12.33;100.00
11710;BME280;5911;51.036;6.972;2022-10-19T01:08:16;101963.25;;;12.39;100.00
11710;BME280;5911;51.036;6.972;2022-10-19T01:10:50;101962.75;;;12.46;100.00
11710;BME280;5911;51.036;6.972;2022-10-19T01:13:28;101954.59;;;12.37;100.00
11710;BME280;5911;51.036;6.972;2022-10-19T01:16:05;101955.22;;;12.40;100.00
11710;BME280;5911;51.036;6.972;2022-10-19T01:18:43;101941.25;;;12.38;100.00
11710;BME280;5911;51.036;6.972;2022-10-19T01:21:18;101960.19;;;12.32;100.00
11710;BME280;5911;51.036;6.972;2022-10-19T01:24:08;101951.31;;;12.33;100.00
11710;BME280;5911;51.036;6.972;2022-10-19T01:26:56;101946.03;;;12.33;100.00
11710;BME280;5911;51.036;6.972;2022-10-19T01:32:16;101944.41;;;12.18;100.00
11710;BME280;5911;51.036;6.972;2022-10-19T01:34:53;101950.97;;;12.25;100.00
11710;BME280;5911;51.036;6.972;2022-10-19T01:37:29;101946.84;;;12.21;100.00
11710;BME280;5911;51.036;6.972;2022-10-19T01:40:03;101949.06;;;12.27;100.00
11710;BME280;5911;51.036;6.972;2022-10-19T01:42:41;101949.59;;;12.19;100.00
11710;BME280;5911;51.036;6.972;2022-10-19T01:45:15;101933.47;;;12.10;100.00
11710;BME280;5911;51.036;6.972;2022-10-19T01:47:51;101939.22;;;12.16;100.00
11710;BME280;5911;51.036;6.972;2022-10-19T01:50:26;101943.56;;;12.17;100.00
11710;BME280;5911;51.036;6.972;2022-10-19T01:52:56;101915.59;;;12.01;100.00
11710;BME280;5911;51.036;6.972;2022-10-19T01:55:26;101927.25;;;12.11;100.00
11710;BME280;5911;51.036;6.972;2022-10-19T01:57:58;101926.09;;;12.15;100.00
11710;BME280;5911;51.036;6.972;2022-10-19T02:00:28;101928.19;;;12.10;100.00
11710;BME280;5911;51.036;6.972;2022-10-19T02:02:59;101912.31;;;12.10;100.00
11710;BME280;5911;51.036;6.972;2022-10-19T02:05:29;101914.00;;;12.11;100.00
11710;BME280;5911;51.036;6.972;2022-10-19T02:08:00;101922.16;;;12.08;100.00
11710;BME280;5911;51.036;6.972;2022-10-19T02:10:30;101913.06;;;12.12;100.00
11710;BME280;5911;51.036;6.972;2022-10-19T02:13:01;101915.91;;;12.09;100.00
11710;BME280;5911;51.036;6.972;2022-10-19T02:15:32;101912.41;;;12.08;100.00
11710;BME280;5911;51.036;6.972;2022-10-19T02:18:03;101912.66;;;12.05;100.00
11710;BME280;5911;51.036;6.972;2022-10-19T02:20:34;101912.75;;;12.04;100.00
11710;BME280;5911;51.036;6.972;2022-10-19T02:23:02;101889.97;;;11.88;100.00
11710;BME280;5911;51.036;6.972;2022-10-19T02:25:31;101915.59;;;12.01;100.00
11710;BME280;5911;51.036;6.972;2022-10-19T02:28:00;101913.69;;;12.03;100.00
11710;BME280;5911;51.036;6.972;2022-10-19T02:30:28;101915.28;;;12.05;100.00
11710;BME280;5911;51.036;6.972;2022-10-19T02:32:56;101903.41;;;11.98;100.00
11710;BME280;5911;51.036;6.972;2022-10-19T02:35:25;101910.19;;;12.02;100.00
11710;BME280;5911;51.036;6.972;2022-10-19T02:37:54;101915.03;;;11.95;100.00
11710;BME280;5911;51.036;6.972;2022-10-19T02:40:25;101900.13;;;11.94;100.00
11710;BME280;5911;51.036;6.972;2022-10-19T02:42:57;101899.50;;;11.91;100.00
11710;BME280;5911;51.036;6.972;2022-10-19T02:45:30;101894.22;;;11.91;100.00
11710;BME280;5911;51.036;6.972;2022-10-19T02:48:00;101894.81;;;11.94;100.00
11710;BME280;5911;51.036;6.972;2022-10-19T02:50:30;101886.91;;;11.94;100.00
11710;BME280;5911;51.036;6.972;2022-10-19T02:52:58;101852.44;;;11.69;100.00
11710;BME280;5911;51.036;6.972;2022-10-19T02:55:27;101882.34;;;11.96;100.00
11710;BME280;5911;51.036;6.972;2022-10-19T02:57:55;101879.59;;;11.85;100.00
11710;BME280;5911;51.036;6.972;2022-10-19T03:00:23;101875.84;;;11.75;100.00
11710;BME280;5911;51.036;6.972;2022-10-19T03:02:51;101883.56;;;11.78;100.00
11710;BME280;5911;51.036;6.972;2022-10-19T03:05:19;101880.66;;;11.69;100.00
11710;BME280;5911;51.036;6.972;2022-10-19T03:07:48;101880.66;;;11.69;100.00
11710;BME280;5911;51.036;6.972;2022-10-19T03:10:16;101877.00;;;11.71;100.00
11710;BME280;5911;51.036;6.972;2022-10-19T03:12:43;101867.56;;;11.67;100.00
11710;BME280;5911;51.036;6.972;2022-10-19T03:15:13;101867.84;;;11.62;100.00
11710;BME280;5911;51.036;6.972;2022-10-19T03:17:41;101875.47;;;11.67;100.00
11710;BME280;5911;51.036;6.972;2022-10-19T03:20:10;101873.31;;;11.74;100.00
11710;BME280;5911;51.036;6.972;2022-10-19T03:22:38;101871.69;;;11.71;100.00
11710;BME280;5911;51.036;6.972;2022-10-19T03:25:07;101872.28;;;11.62;100.00
11710;BME280;5911;51.036;6.972;2022-10-19T03:27:35;101866.16;;;11.61;100.00
11710;BME280;5911;51.036;6.972;2022-10-19T03:30:03;101867.94;;;11.61;100.00
11710;BME280;5911;51.036;6.972;2022-10-19T03:32:31;101874.22;;;11.60;100.00
11710;BME280;5911;51.036;6.972;2022-10-19T03:34:59;101879.50;;;11.60;100.00
11710;BME280;5911;51.036;6.972;2022-10-19T03:37:27;101877.81;;;11.59;100.00
11710;BME280;5911;51.036;6.972;2022-10-19T03:39:54;101876.72;;;11.61;100.00
11710;BME280;5911;51.036;6.972;2022-10-19T03:42:23;101871.66;;;11.58;100.00
11710;BME280;5911;51.036;6.972;2022-10-19T03:44:51;101886.78;;;11.56;100.00
11710;BME280;5911;51.036;6.972;2022-10-19T03:47:19;101890.25;;;11.57;100.00
11710;BME280;5911;51.036;6.972;2022-10-19T03:49:46;101884.97;;;11.57;100.00
11710;BME280;5911;51.036;6.972;2022-10-19T03:52:16;101885.16;;;11.54;100.00
11710;BME280;5911;51.036;6.972;2022-10-19T03:54:44;101886.13;;;11.53;100.00
11710;BME280;5911;51.036;6.972;2022-10-19T03:57:12;101894.03;;;11.53;100.00
11710;BME280;5911;51.036;6.972;2022-10-19T03:59:41;101883.47;;;11.53;100.00
11710;BME280;5911;51.036;6.972;2022-10-19T04:02:09;101889.16;;;11.47;100.00
11710;BME280;5911;51.036;6.972;2022-10-19T04:04:37;101893.47;;;11.48;100.00
11710;BME280;5911;51.036;6.972;2022-10-19T04:07:05;101888.94;;;11.50;100.00
11710;BME280;5911;51.036;6.972;2022-10-19T04:09:32;101892.72;;;11.46;100.00
11710;BME280;5911;51.036;6.972;2022-10-19T04:12:00;101853.84;;;11.21;100.00
11710;BME280;5911;51.036;6.972;2022-10-19T04:14:30;101827.31;;;11.10;100.00
11710;BME280;5911;51.036;6.972;2022-10-19T04:17:12;101890.84;;;11.48;100.00
11710;BME280;5911;51.036;6.972;2022-10-19T04:19:40;101891.31;;;11.54;100.00
11710;BME280;5911;51.036;6.972;2022-10-19T04:22:08;101865.59;;;11.44;100.00
11710;BME280;5911;51.036;6.972;2022-10-19T04:24:35;101883.88;;;11.47;100.00
11710;BME280;5911;51.036;6.972;2022-10-19T04:27:03;101882.81;;;11.49;100.00
11710;BME280;5911;51.036;6.972;2022-10-19T04:29:31;101855.06;;;11.30;100.00
11710;BME280;5911;51.036;6.972;2022-10-19T04:31:59;101880.50;;;11.45;100.00
11710;BME280;5911;51.036;6.972;2022-10-19T04:34:28;101880.28;;;11.48;100.00
11710;BME280;5911;51.036;6.972;2022-10-19T04:36:55;101883.13;;;11.45;100.00
11710;BME280;5911;51.036;6.972;2022-10-19T04:39:25;101881.44;;;11.44;100.00
11710;BME280;5911;51.036;6.972;2022-10-19T04:41:52;101867.31;;;11.31;100.00
11710;BME280;5911;51.036;6.972;2022-10-19T04:44:20;101892.00;;;11.44;100.00
11710;BME280;5911;51.036;6.972;2022-10-19T04:46:52;101877.78;;;11.32;100.00
11710;BME280;5911;51.036;6.972;2022-10-19T04:49:20;101879.00;;;11.41;100.00
11710;BME280;5911;51.036;6.972;2022-10-19T04:51:49;101871.88;;;11.28;100.00
11710;BME280;5911;51.036;6.972;2022-10-19T04:54:17;101872.41;;;11.34;100.00
11710;BME280;5911;51.036;6.972;2022-10-19T04:56:44;101869.94;;;11.31;100.00
11710;BME280;5911;51.036;6.972;2022-10-19T04:59:12;101874.28;;;11.32;100.00
11710;BME280;5911;51.036;6.972;2022-10-19T05:01:40;101864.47;;;11.34;100.00
11710;BME280;5911;51.036;6.972;2022-10-19T05:04:17;101879.97;;;11.25;100.00
11710;BME280;5911;51.036;6.972;2022-10-19T05:06:45;101877.25;;;11.27;100.00
11710;BME280;5911;51.036;6.972;2022-10-19T05:09:16;101875.34;;;11.29;100.00
11710;BME280;5911;51.036;6.972;2022-10-19T05:11:44;101856.06;;;11.14;100.00
11710;BME280;5911;51.036;6.972;2022-10-19T05:14:12;101877.16;;;11.28;100.00
11710;BME280;5911;51.036;6.972;2022-10-19T05:16:40;101872.63;;;11.16;100.00
11710;BME280;5911;51.036;6.972;2022-10-19T05:19:12;101868.09;;;11.18;100.00
11710;BME280;5911;51.036;6.972;2022-10-19T05:21:40;101864.69;;;11.16;100.00
11710;BME280;5911;51.036;6.972;2022-10-19T05:24:10;101851.16;;;11.08;100.00
11710;BME280;5911;51.036;6.972;2022-10-19T05:26:40;101864.31;;;11.22;100.00
11710;BME280;5911;51.036;6.972;2022-10-19T05:29:10;101861.53;;;11.11;100.00
11710;BME280;5911;51.036;6.972;2022-10-19T05:31:38;101828.56;;;10.90;100.00
11710;BME280;5911;51.036;6.972;2022-10-19T05:34:06;101749.31;;;10.36;100.00
11710;BME280;5911;51.036;6.972;2022-10-19T05:36:39;101873.22;;;11.07;100.00
11710;BME280;5911;51.036;6.972;2022-10-19T05:39:08;101839.72;;;10.81;100.00
11710;BME280;5911;51.036;6.972;2022-10-19T05:41:42;101871.06;;;11.14;100.00
11710;BME280;5911;51.036;6.972;2022-10-19T05:44:13;101861.34;;;11.00;100.00
11710;BME280;5911;51.036;6.972;2022-10-19T05:46:42;101872.09;;;11.11;100.00
11710;BME280;5911;51.036;6.972;2022-10-19T05:49:10;101860.13;;;11.06;100.00
11710;BME280;5911;51.036;6.972;2022-10-19T05:51:38;101856.38;;;10.96;100.00
11710;BME280;5911;51.036;6.972;2022-10-19T05:54:06;101870.03;;;11.02;100.00
11710;BME280;5911;51.036;6.972;2022-10-19T05:56:34;101877.94;;;11.02;100.00
11710;BME280;5911;51.036;6.972;2022-10-19T05:59:04;101871.19;;;10.98;100.00
11710;BME280;5911;51.036;6.972;2022-10-19T06:01:33;101871.81;;;11.02;100.00
11710;BME280;5911;51.036;6.972;2022-10-19T06:04:02;101833.69;;;10.79;100.00
11710;BME280;5911;51.036;6.972;2022-10-19T06:06:30;101839.91;;;10.78;100.00
11710;BME280;5911;51.036;6.972;2022-10-19T06:08:58;101878.34;;;10.96;100.00
11710;BME280;5911;51.036;6.972;2022-10-19T06:11:28;101869.00;;;10.90;100.00
11710;BME280;5911;51.036;6.972;2022-10-19T06:13:58;101880.66;;;11.01;100.00
11710;BME280;5911;51.036;6.972;2022-10-19T06:16:28;101851.03;;;10.83;100.00
11710;BME280;5911;51.036;6.972;2022-10-19T06:18:57;101865.16;;;10.96;100.00
11710;BME280;5911;51.036;6.972;2022-10-19T06:21:27;101867.97;;;10.93;100.00
11710;BME280;5911;51.036;6.972;2022-10-19T06:23:57;101845.09;;;10.79;100.00
11710;BME280;5911;51.036;6.972;2022-10-19T06:26:26;101871.38;;;10.95;100.00
11710;BME280;5911;51.036;6.972;2022-10-19T06:28:55;101878.34;;;10.96;100.00
11710;BME280;5911;51.036;6.972;2022-10-19T06:31:23;101872.78;;;10.86;100.00
11710;BME280;5911;51.036;6.972;2022-10-19T06:33:52;101882.69;;;10.83;100.00
11710;BME280;5911;51.036;6.972;2022-10-19T06:36:23;101874.22;;;10.78;100.00
11710;BME280;5911;51.036;6.972;2022-10-19T06:38:51;101883.81;;;10.79;100.00
11710;BME280;5911;51.036;6.972;2022-10-19T06:41:19;101888.72;;;10.85;100.00
11710;BME280;5911;51.036;6.972;2022-10-19T06:43:49;101874.59;;;10.72;100.00
11710;BME280;5911;51.036;6.972;2022-10-19T06:46:19;101892.28;;;10.70;100.00
11710;BME280;5911;51.036;6.972;2022-10-19T06:48:49;101904.66;;;10.83;100.00
11710;BME280;5911;51.036;6.972;2022-10-19T06:51:19;101875.72;;;10.82;100.00
11710;BME280;5911;51.036;6.972;2022-10-19T06:53:47;101879.31;;;10.81;100.00
11710;BME280;5911;51.036;6.972;2022-10-19T06:56:21;101878.34;;;10.96;100.00
11710;BME280;5911;51.036;6.972;2022-10-19T06:58:50;101879.81;;;11.00;100.00
11710;BME280;5911;51.036;6.972;2022-10-19T07:01:17;101874.34;;;11.03;100.00
11710;BME280;5911;51.036;6.972;2022-10-19T07:03:46;101868.13;;;11.04;100.00
11710;BME280;5911;51.036;6.972;2022-10-19T07:06:13;101867.00;;;11.08;100.00
11710;BME280;5911;51.036;6.972;2022-10-19T07:08:43;101868.50;;;11.12;100.00
11710;BME280;5911;51.036;6.972;2022-10-19T07:11:15;101869.25;;;11.14;100.00
11710;BME280;5911;51.036;6.972;2022-10-19T07:13:43;101864.94;;;11.13;100.00
11710;BME280;5911;51.036;6.972;2022-10-19T07:16:13;101865.47;;;11.18;100.00
11710;BME280;5911;51.036;6.972;2022-10-19T07:18:47;101868.66;;;11.23;100.00
11710;BME280;5911;51.036;6.972;2022-10-19T07:21:16;101876.41;;;11.26;100.00
11710;BME280;5911;51.036;6.972;2022-10-19T07:23:46;101888.16;;;11.35;100.00
11710;BME280;5911;51.036;6.972;2022-10-19T07:26:15;101879.38;;;11.35;100.00
11710;BME280;5911;51.036;6.972;2022-10-19T07:28:45;101874.28;;;11.32;100.00
11710;BME280;5911;51.036;6.972;2022-10-19T07:31:15;101879.28;;;11.36;100.00
11710;BME280;5911;51.036;6.972;2022-10-19T07:33:45;101871.56;;;11.33;100.00
11710;BME280;5911;51.036;6.972;2022-10-19T07:36:13;101885.97;;;11.42;100.00
11710;BME280;5911;51.036;6.972;2022-10-19T07:38:41;101855.47;;;11.23;100.00
11710;BME280;5911;51.036;6.972;2022-10-19T07:41:12;101881.34;;;11.45;100.00
11710;BME280;5911;51.036;6.972;2022-10-19T07:43:41;101872.09;;;11.38;100.00
11710;BME280;5911;51.036;6.972;2022-10-19T07:46:11;101855.06;;;11.30;100.00
11710;BME280;5911;51.036;6.972;2022-10-19T07:48:40;101838.47;;;11.27;100.00
11710;BME280;5911;51.036;6.972;2022-10-19T07:51:09;101876.50;;;11.52;100.00
11710;BME280;5911;51.036;6.972;2022-10-19T07:53:38;101834.09;;;11.14;100.00
11710;BME280;5911;51.036;6.972;2022-10-19T07:56:07;101883.09;;;11.59;100.00
11710;BME280;5911;51.036;6.972;2022-10-19T07:58:37;101829.38;;;11.32;100.00
11710;BME280;5911;51.036;6.972;2022-10-19T08:01:06;101882.66;;;11.65;100.00
11710;BME280;5911;51.036;6.972;2022-10-19T08:03:35;101871.22;;;11.52;100.00
11710;BME280;5911;51.036;6.972;2022-10-19T08:06:23;101882.47;;;11.68;100.00
11710;BME280;5911;51.036;6.972;2022-10-19T08:08:52;101878.13;;;11.67;100.00
11710;BME280;5911;51.036;6.972;2022-10-19T08:11:22;101861.78;;;11.75;100.00
11710;BME280;5911;51.036;6.972;2022-10-19T08:13:52;101852.09;;;11.61;100.00
11710;BME280;5911;51.036;6.972;2022-10-19T08:16:25;101863.94;;;11.82;100.00
11710;BME280;5911;51.036;6.972;2022-10-19T08:18:56;101862.97;;;11.83;100.00
11710;BME280;5911;51.036;6.972;2022-10-19T08:21:24;101865.44;;;11.86;100.00
11710;BME280;5911;51.036;6.972;2022-10-19T08:23:52;101852.00;;;11.89;100.00
11710;BME280;5911;51.036;6.972;2022-10-19T08:26:20;101848.72;;;11.86;100.00
11710;BME280;5911;51.036;6.972;2022-10-19T08:28:48;101856.00;;;11.95;100.00
11710;BME280;5911;51.036;6.972;2022-10-19T08:31:19;101826.38;;;11.77;100.00
11710;BME280;5911;51.036;6.972;2022-10-19T08:33:48;101855.50;;;12.03;100.00
11710;BME280;5911;51.036;6.972;2022-10-19T08:36:17;101856.03;;;12.08;100.00
11710;BME280;5911;51.036;6.972;2022-10-19T08:38:47;101853.19;;;12.11;100.00
11710;BME280;5911;51.036;6.972;2022-10-19T08:41:21;101844.41;;;12.10;100.00
11710;BME280;5911;51.036;6.972;2022-10-19T08:44:01;101840.28;;;12.19;100.00
11710;BME280;5911;51.036;6.972;2022-10-19T08:46:42;101828.41;;;12.24;100.00
11710;BME280;5911;51.036;6.972;2022-10-19T08:49:18;101827.38;;;12.27;100.00
11710;BME280;5911;51.036;6.972;2022-10-19T08:51:50;101826.94;;;12.33;100.00
11710;BME280;5911;51.036;6.972;2022-10-19T08:54:20;101829.16;;;12.39;100.00
11710;BME280;5911;51.036;6.972;2022-10-19T08:56:53;101819.09;;;12.44;100.00
11710;BME280;5911;51.036;6.972;2022-10-19T08:59:30;101798.16;;;12.41;100.00
11710;BME280;5911;51.036;6.972;2022-10-19T09:02:08;101817.38;;;12.56;100.00
11710;BME280;5911;51.036;6.972;2022-10-19T09:04:39;101808.50;;;12.57;100.00
11710;BME280;5911;51.036;6.972;2022-10-19T09:07:30;101813.25;;;12.64;100.00
11710;BME280;5911;51.036;6.972;2022-10-19T09:10:02;101804.13;;;12.68;100.00
11710;BME280;5911;51.036;6.972;2022-10-19T09:12:36;101804.44;;;12.77;100.00
11710;BME280;5911;51.036;6.972;2022-10-19T09:15:10;101801.22;;;12.84;100.00
11710;BME280;5911;51.036;6.972;2022-10-19T09:17:40;101806.94;;;12.91;100.00
11710;BME280;5911;51.036;6.972;2022-10-19T09:20:17;101799.78;;;13.04;100.00
11710;BME280;5911;51.036;6.972;2022-10-19T09:22:48;101800.09;;;13.12;100.00
11710;BME280;5911;51.036;6.972;2022-10-19T09:25:19;101800.91;;;13.25;100.00
11710;BME280;5911;51.036;6.972;2022-10-19T09:27:48;101802.53;;;13.39;100.00
11710;BME280;5911;51.036;6.972;2022-10-19T09:30:21;101813.09;;;13.63;100.00
11710;BME280;5911;51.036;6.972;2022-10-19T09:32:58;101806.69;;;13.89;100.00
11710;BME280;5911;51.036;6.972;2022-10-19T09:35:29;101785.47;;;13.89;100.00
11710;BME280;5911;51.036;6.972;2022-10-19T09:37:59;101783.66;;;14.01;100.00
11710;BME280;5911;51.036;6.972;2022-10-19T09:40:29;101810.13;;;14.36;100.00
11710;BME280;5911;51.036;6.972;2022-10-19T09:42:57;101812.06;;;14.45;100.00
11710;BME280;5911;51.036;6.972;2022-10-19T09:45:37;101818.31;;;14.55;100.00
11710;BME280;5911;51.036;6.972;2022-10-19T09:48:16;101812.28;;;14.75;100.00
11710;BME280;5911;51.036;6.972;2022-10-19T09:50:44;101809.72;;;14.85;100.00
11710;BME280;5911;51.036;6.972;2022-10-19T09:53:19;101806.06;;;14.97;100.00
11710;BME280;5911;51.036;6.972;2022-10-19T09:55:51;101804.25;;;15.09;100.00
11710;BME280;5911;51.036;6.972;2022-10-19T09:58:25;101805.44;;;15.16;100.00
11710;BME280;5911;51.036;6.972;2022-10-19T10:00:59;101806.38;;;15.26;100.00
11710;BME280;5911;51.036;6.972;2022-10-19T10:03:31;101816.00;;;15.38;100.00
11710;BME280;5911;51.036;6.972;2022-10-19T10:06:03;101806.66;;;15.55;100.00
11710;BME280;5911;51.036;6.972;2022-10-19T10:08:35;101816.13;;;15.69;100.00
11710;BME280;5911;51.036;6.972;2022-10-19T10:11:07;101816.31;;;15.77;100.00
11710;BME280;5911;51.036;6.972;2022-10-19T10:13:36;101811.22;;;15.85;100.00
11710;BME280;5911;51.036;6.972;2022-10-19T10:16:08;101813.41;;;16.01;100.00
11710;BME280;5911;51.036;6.972;2022-10-19T10:18:50;101808.47;;;15.96;100.00
11710;BME280;5911;51.036;6.972;2022-10-19T10:21:25;101817.09;;;16.09;100.00
11710;BME280;5911;51.036;6.972;2022-10-19T10:23:59;101816.75;;;16.24;100.00
11710;BME280;5911;51.036;6.972;2022-10-19T10:26:27;101809.94;;;16.31;100.00
11710;BME280;5911;51.036;6.972;2022-10-19T10:28:55;101807.88;;;16.44;100.00
11710;BME280;5911;51.036;6.972;2022-10-19T10:31:28;101807.50;;;16.58;100.00
11710;BME280;5911;51.036;6.972;2022-10-19T10:33:59;101802.09;;;16.69;100.00
11710;BME280;5911;51.036;6.972;2022-10-19T10:36:50;101795.41;;;16.84;100.00
11710;BME280;5911;51.036;6.972;2022-10-19T10:39:20;101799.53;;;17.08;100.00
11710;BME280;5911;51.036;6.972;2022-10-19T10:41:50;101804.34;;;17.33;100.00
11710;BME280;5911;51.036;6.972;2022-10-19T10:44:19;101805.16;;;17.63;100.00
11710;BME280;5911;51.036;6.972;2022-10-19T10:46:53;101789.72;;;17.76;100.00
11710;BME280;5911;51.036;6.972;2022-10-19T10:49:25;101793.25;;;17.86;100.00
11710;BME280;5911;51.036;6.972;2022-10-19T10:51:55;101789.69;;;17.95;100.00
11710;BME280;5911;51.036;6.972;2022-10-19T10:54:25;101789.09;;;18.11;100.00
11710;BME280;5911;51.036;6.972;2022-10-19T10:57:04;101794.28;;;18.12;96.36
11710;BME280;5911;51.036;6.972;2022-10-19T10:59:42;101788.75;;;18.23;97.06
11710;BME280;5911;51.036;6.972;2022-10-19T11:02:19;101785.38;;;18.31;95.77
11710;BME280;5911;51.036;6.972;2022-10-19T11:05:00;101782.25;;;18.36;94.16
11710;BME280;5911;51.036;6.972;2022-10-19T11:07:31;101785.88;;;18.44;93.22
11710;BME280;5911;51.036;6.972;2022-10-19T11:10:04;101778.28;;;18.12;98.03
11710;BME280;5911;51.036;6.972;2022-10-19T11:12:37;101776.22;;;17.58;98.91
11710;BME280;5911;51.036;6.972;2022-10-19T11:15:14;101755.31;;;17.15;100.00
11710;BME280;5911;51.036;6.972;2022-10-19T11:17:52;101749.97;;;16.86;100.00
11710;BME280;5911;51.036;6.972;2022-10-19T11:20:25;101737.19;;;16.70;100.00
11710;BME280;5911;51.036;6.972;2022-10-19T11:22:58;101737.00;;;16.62;100.00
11710;BME280;5911;51.036;6.972;2022-10-19T11:25:34;101731.94;;;16.49;100.00
11710;BME280;5911;51.036;6.972;2022-10-19T11:28:18;101728.50;;;16.38;100.00
11710;BME280;5911;51.036;6.972;2022-10-19T11:30:55;101728.09;;;16.33;100.00
11710;BME280;5911;51.036;6.972;2022-10-19T11:33:42;101720.50;;;16.28;100.00
11710;BME280;5911;51.036;6.972;2022-10-19T11:36:19;101714.44;;;16.16;100.00
11710;BME280;5911;51.036;6.972;2022-10-19T11:39:04;101709.00;;;16.28;100.00
11710;BME280;5911;51.036;6.972;2022-10-19T11:41:45;101709.53;;;16.22;100.00
11710;BME280;5911;51.036;6.972;2022-10-19T11:44:24;101695.50;;;16.19;100.00
11710;BME280;5911;51.036;6.972;2022-10-19T11:47:12;101705.91;;;16.23;100.00
11710;BME280;5911;51.036;6.972;2022-10-19T11:49:53;101703.81;;;16.26;100.00
11710;BME280;5911;51.036;6.972;2022-10-19T11:52:29;101691.59;;;16.24;100.00
11710;BME280;5911;51.036;6.972;2022-10-19T11:55:11;101683.47;;;16.15;100.00
11710;BME280;5911;51.036;6.972;2022-10-19T11:57:46;101685.69;;;16.10;100.00
11710;BME280;5911;51.036;6.972;2022-10-19T12:00:18;101686.53;;;16.11;100.00
11710;BME280;5911;51.036;6.972;2022-10-19T12:03:29;101680.88;;;16.04;100.00
11710;BME280;5911;51.036;6.972;2022-10-19T12:06:04;101679.66;;;16.08;100.00
11710;BME280;5911;51.036;6.972;2022-10-19T12:08:52;101667.31;;;16.07;100.00
11710;BME280;5911;51.036;6.972;2022-10-19T12:11:32;101655.94;;;16.05;100.00
11710;BME280;5911;51.036;6.972;2022-10-19T12:14:11;101653.72;;;16.01;100.00
11710;BME280;5911;51.036;6.972;2022-10-19T12:16:44;101649.25;;;16.01;100.00
11710;BME280;5911;51.036;6.972;2022-10-19T12:19:18;101621.13;;;15.78;100.00
11710;BME280;5911;51.036;6.972;2022-10-19T12:21:48;101653.41;;;15.94;100.00
11710;BME280;5911;51.036;6.972;2022-10-19T12:24:19;101650.59;;;15.96;100.00
11710;BME280;5911;51.036;6.972;2022-10-19T12:26:49;101642.50;;;15.97;100.00
11710;BME280;5911;51.036;6.972;2022-10-19T12:29:20;101641.91;;;15.94;100.00
11710;BME280;5911;51.036;6.972;2022-10-19T12:31:49;101622.56;;;15.92;100.00
11710;BME280;5911;51.036;6.972;2022-10-19T12:34:25;101611.38;;;15.88;100.00
11710;BME280;5911;51.036;6.972;2022-10-19T12:37:01;101618.22;;;15.91;100.00
11710;BME280;5911;51.036;6.972;2022-10-19T12:39:40;101611.09;;;15.91;100.00
11710;BME280;5911;51.036;6.972;2022-10-19T12:42:16;101605.75;;;15.91;100.00
11710;BME280;5911;51.036;6.972;2022-10-19T12:45:11;101604.38;;;15.97;100.00
11710;BME280;5911;51.036;6.972;2022-10-19T12:48:15;101601.88;;;15.95;100.00
11710;BME280;5911;51.036;6.972;2022-10-19T12:51:03;101605.50;;;15.94;100.00
11710;BME280;5911;51.036;6.972;2022-10-19T12:53:34;101592.91;;;15.96;100.00
11710;BME280;5911;51.036;6.972;2022-10-19T12:56:06;101596.00;;;16.01;100.00
11710;BME280;5911;51.036;6.972;2022-10-19T12:58:44;101596.56;;;16.05;100.00
11710;BME280;5911;51.036;6.972;2022-10-19T13:01:17;101589.84;;;16.10;100.00
11710;BME280;5911;51.036;6.972;2022-10-19T13:03:47;101580.88;;;16.11;100.00
11710;BME280;5911;51.036;6.972;2022-10-19T13:06:28;101580.75;;;16.13;100.00
11710;BME280;5911;51.036;6.972;2022-10-19T13:08:58;101577.38;;;16.21;100.00
11710;BME280;5911;51.036;6.972;2022-10-19T13:11:29;101573.88;;;16.20;100.00
11710;BME280;5911;51.036;6.972;2022-10-19T13:14:03;101566.75;;;16.21;100.00
11710;BME280;5911;51.036;6.972;2022-10-19T13:16:39;101555.69;;;16.15;100.00